sensor_id;sensor_type;location;lat;lon;timestamp;temperature;humidity
10986;DHT22;5546;48.714;8.738;2022-12-18T00:02:16;-5.50;81.70
10986;DHT22;5546;48.714;8.738;2022-12-18T00:04:42;-6.60;83.40
10986;DHT22;5546;48.714;8.738;2022-12-18T00:07:08;-6.70;84.20
10986;DHT22;5546;48.714;8.738;2022-12-18T00:09:33;-6.60;84.70
10986;DHT22;5546;48.714;8.738;2022-12-18T00:11:59;-6.60;84.90
10986;DHT22;5546;48.714;8.738;2022-12-18T00:14:25;-7.00;85.90
10986;DHT22;5546;48.714;8.738;2022-12-18T00:16:50;-6.90;86.10
10986;DHT22;5546;48.714;8.738;2022-12-18T00:19:16;-6.80;86.10
10986;DHT22;5546;48.714;8.738;2022-12-18T00:21:42;-6.40;84.90
10986;DHT22;5546;48.714;8.738;2022-12-18T00:24:09;-6.20;83.60
10986;DHT22;5546;48.714;8.738;2022-12-18T00:26:37;-6.00;82.80
10986;DHT22;5546;48.714;8.738;2022-12-18T00:29:11;-6.10;82.20
10986;DHT22;5546;48.714;8.738;2022-12-18T00:31:39;-5.90;81.90
10986;DHT22;5546;48.714;8.738;2022-12-18T00:34:04;-6.20;81.60
10986;DHT22;5546;48.714;8.738;2022-12-18T00:36:32;-7.00;83.50
10986;DHT22;5546;48.714;8.738;2022-12-18T00:39:03;-7.10;84.00
10986;DHT22;5546;48.714;8.738;2022-12-18T00:41:29;-7.00;85.00
10986;DHT22;5546;48.714;8.738;2022-12-18T00:44:15;-6.90;85.30
10986;DHT22;5546;48.714;8.738;2022-12-18T00:46:41;-6.90;83.80
10986;DHT22;5546;48.714;8.738;2022-12-18T00:49:07;-6.80;85.30
10986;DHT22;5546;48.714;8.738;2022-12-18T00:51:33;-6.50;83.80
10986;DHT22;5546;48.714;8.738;2022-12-18T00:53:59;-5.60;83.30
10986;DHT22;5546;48.714;8.738;2022-12-18T00:56:24;-6.20;80.90
10986;DHT22;5546;48.714;8.738;2022-12-18T00:58:50;-6.20;81.50
10986;DHT22;5546;48.714;8.738;2022-12-18T01:01:16;-5.80;80.90
10986;DHT22;5546;48.714;8.738;2022-12-18T01:03:42;-6.10;80.20
10986;DHT22;5546;48.714;8.738;2022-12-18T01:06:09;-6.80;82.70
10986;DHT22;5546;48.714;8.738;2022-12-18T01:08:35;-6.80;82.40
10986;DHT22;5546;48.714;8.738;2022-12-18T01:11:11;-6.80;83.00
10986;DHT22;5546;48.714;8.738;2022-12-18T01:13:37;-6.70;83.70
10986;DHT22;5546;48.714;8.738;2022-12-18T01:16:03;-6.50;83.00
10986;DHT22;5546;48.714;8.738;2022-12-18T01:18:29;-6.80;82.10
10986;DHT22;5546;48.714;8.738;2022-12-18T01:20:54;-6.80;82.80
10986;DHT22;5546;48.714;8.738;2022-12-18T01:23:20;-6.80;82.90
10986;DHT22;5546;48.714;8.738;2022-12-18T01:25:45;-7.00;83.50
10986;DHT22;5546;48.714;8.738;2022-12-18T01:28:11;-7.40;84.00
10986;DHT22;5546;48.714;8.738;2022-12-18T01:30:37;-7.60;84.70
10986;DHT22;5546;48.714;8.738;2022-12-18T01:33:04;-7.60;85.30
10986;DHT22;5546;48.714;8.738;2022-12-18T01:35:30;-7.40;85.40
10986;DHT22;5546;48.714;8.738;2022-12-18T01:37:56;-7.30;85.30
10986;DHT22;5546;48.714;8.738;2022-12-18T01:40:22;-7.20;84.80
10986;DHT22;5546;48.714;8.738;2022-12-18T01:42:52;-7.30;84.10
10986;DHT22;5546;48.714;8.738;2022-12-18T01:45:25;-7.70;84.70
10986;DHT22;5546;48.714;8.738;2022-12-18T01:47:53;-7.80;85.00
10986;DHT22;5546;48.714;8.738;2022-12-18T01:50:40;-7.70;85.40
10986;DHT22;5546;48.714;8.738;2022-12-18T01:53:08;-7.50;85.10
10986;DHT22;5546;48.714;8.738;2022-12-18T01:55:42;-7.30;84.40
10986;DHT22;5546;48.714;8.738;2022-12-18T01:58:08;-7.30;85.00
10986;DHT22;5546;48.714;8.738;2022-12-18T02:00:33;-7.30;84.90
10986;DHT22;5546;48.714;8.738;2022-12-18T02:02:59;-7.60;84.10
10986;DHT22;5546;48.714;8.738;2022-12-18T02:14:07;-7.60;86.40
10986;DHT22;5546;48.714;8.738;2022-12-18T02:16:28;-7.40;85.80
10986;DHT22;5546;48.714;8.738;2022-12-18T02:18:58;-7.30;85.10
10986;DHT22;5546;48.714;8.738;2022-12-18T02:21:41;-7.60;85.00
10986;DHT22;5546;48.714;8.738;2022-12-18T02:24:33;-7.20;85.30
10986;DHT22;5546;48.714;8.738;2022-12-18T02:27:03;-7.40;84.20
10986;DHT22;5546;48.714;8.738;2022-12-18T02:29:40;-7.50;85.60
10986;DHT22;5546;48.714;8.738;2022-12-18T02:32:12;-7.00;83.90
10986;DHT22;5546;48.714;8.738;2022-12-18T02:34:40;-6.50;82.10
10986;DHT22;5546;48.714;8.738;2022-12-18T02:37:12;-6.30;81.20
10986;DHT22;5546;48.714;8.738;2022-12-18T02:39:41;-6.30;81.60
10986;DHT22;5546;48.714;8.738;2022-12-18T02:42:07;-7.30;81.90
10986;DHT22;5546;48.714;8.738;2022-12-18T02:44:34;-7.10;83.40
10986;DHT22;5546;48.714;8.738;2022-12-18T02:47:01;-7.00;84.10
10986;DHT22;5546;48.714;8.738;2022-12-18T02:55:08;-6.30;81.30
10986;DHT22;5546;48.714;8.738;2022-12-18T02:57:42;-6.20;80.50
10986;DHT22;5546;48.714;8.738;2022-12-18T03:00:14;-6.40;81.00
10986;DHT22;5546;48.714;8.738;2022-12-18T03:02:55;-6.40;80.40
10986;DHT22;5546;48.714;8.738;2022-12-18T03:05:42;-6.30;80.50
10986;DHT22;5546;48.714;8.738;2022-12-18T03:08:12;-6.40;80.90
10986;DHT22;5546;48.714;8.738;2022-12-18T03:10:44;-6.10;80.60
10986;DHT22;5546;48.714;8.738;2022-12-18T03:13:18;-6.10;80.10
10986;DHT22;5546;48.714;8.738;2022-12-18T03:15:50;-6.20;78.70
10986;DHT22;5546;48.714;8.738;2022-12-18T03:18:23;-6.40;79.60
10986;DHT22;5546;48.714;8.738;2022-12-18T03:20:51;-6.40;79.40
10986;DHT22;5546;48.714;8.738;2022-12-18T03:23:22;-6.40;80.30
10986;DHT22;5546;48.714;8.738;2022-12-18T03:25:52;-6.20;80.40
10986;DHT22;5546;48.714;8.738;2022-12-18T03:28:21;-6.50;80.80
10986;DHT22;5546;48.714;8.738;2022-12-18T03:30:51;-6.40;81.40
10986;DHT22;5546;48.714;8.738;2022-12-18T03:33:23;-6.20;80.60
10986;DHT22;5546;48.714;8.738;2022-12-18T03:35:50;-6.20;80.80
10986;DHT22;5546;48.714;8.738;2022-12-18T03:38:16;-6.60;81.00
10986;DHT22;5546;48.714;8.738;2022-12-18T03:40:50;-6.50;81.90
10986;DHT22;5546;48.714;8.738;2022-12-18T03:46:20;-6.60;82.60
10986;DHT22;5546;48.714;8.738;2022-12-18T03:48:55;-6.80;82.40
10986;DHT22;5546;48.714;8.738;2022-12-18T03:51:40;-6.80;81.60
10986;DHT22;5546;48.714;8.738;2022-12-18T03:54:09;-6.80;82.30
10986;DHT22;5546;48.714;8.738;2022-12-18T03:56:48;-7.00;82.70
10986;DHT22;5546;48.714;8.738;2022-12-18T03:59:16;-7.50;84.70
10986;DHT22;5546;48.714;8.738;2022-12-18T04:01:46;-7.60;85.30
10986;DHT22;5546;48.714;8.738;2022-12-18T04:04:13;-7.90;86.30
10986;DHT22;5546;48.714;8.738;2022-12-18T04:06:40;-8.10;87.50
10986;DHT22;5546;48.714;8.738;2022-12-18T04:09:07;-8.30;87.70
10986;DHT22;5546;48.714;8.738;2022-12-18T04:11:33;-8.30;88.40
10986;DHT22;5546;48.714;8.738;2022-12-18T04:13:58;-8.30;88.90
10986;DHT22;5546;48.714;8.738;2022-12-18T04:16:27;-8.00;88.20
10986;DHT22;5546;48.714;8.738;2022-12-18T04:18:53;-7.90;87.30
10986;DHT22;5546;48.714;8.738;2022-12-18T04:21:19;-8.10;88.20
10986;DHT22;5546;48.714;8.738;2022-12-18T04:23:45;-7.70;87.60
10986;DHT22;5546;48.714;8.738;2022-12-18T04:26:11;-7.70;87.90
10986;DHT22;5546;48.714;8.738;2022-12-18T04:28:36;-7.30;85.40
10986;DHT22;5546;48.714;8.738;2022-12-18T04:31:02;-7.30;84.50
10986;DHT22;5546;48.714;8.738;2022-12-18T04:33:28;-7.30;84.50
10986;DHT22;5546;48.714;8.738;2022-12-18T04:35:53;-7.60;84.50
10986;DHT22;5546;48.714;8.738;2022-12-18T04:38:19;-8.00;85.40
10986;DHT22;5546;48.714;8.738;2022-12-18T04:40:44;-8.10;85.90
10986;DHT22;5546;48.714;8.738;2022-12-18T04:43:10;-7.70;86.00
10986;DHT22;5546;48.714;8.738;2022-12-18T04:45:35;-7.80;86.00
10986;DHT22;5546;48.714;8.738;2022-12-18T04:48:02;-7.20;83.70
10986;DHT22;5546;48.714;8.738;2022-12-18T04:50:28;-7.20;84.30
10986;DHT22;5546;48.714;8.738;2022-12-18T04:52:53;-7.40;83.50
10986;DHT22;5546;48.714;8.738;2022-12-18T04:55:19;-8.10;84.40
10986;DHT22;5546;48.714;8.738;2022-12-18T04:57:45;-8.00;85.60
10986;DHT22;5546;48.714;8.738;2022-12-18T05:00:11;-7.90;85.70
10986;DHT22;5546;48.714;8.738;2022-12-18T05:02:36;-8.20;85.40
10986;DHT22;5546;48.714;8.738;2022-12-18T05:05:02;-8.70;87.30
10986;DHT22;5546;48.714;8.738;2022-12-18T05:07:28;-8.50;88.80
10986;DHT22;5546;48.714;8.738;2022-12-18T05:09:53;-8.40;88.60
10986;DHT22;5546;48.714;8.738;2022-12-18T05:12:18;-8.20;88.50
10986;DHT22;5546;48.714;8.738;2022-12-18T05:14:44;-8.20;89.20
10986;DHT22;5546;48.714;8.738;2022-12-18T05:17:10;-7.30;87.70
10986;DHT22;5546;48.714;8.738;2022-12-18T05:19:35;-7.80;88.00
10986;DHT22;5546;48.714;8.738;2022-12-18T05:22:01;-7.70;88.70
10986;DHT22;5546;48.714;8.738;2022-12-18T05:24:27;-6.30;84.70
10986;DHT22;5546;48.714;8.738;2022-12-18T05:26:52;-6.30;85.40
10986;DHT22;5546;48.714;8.738;2022-12-18T05:31:44;-5.70;82.30
10986;DHT22;5546;48.714;8.738;2022-12-18T05:36:35;-5.30;81.60
10986;DHT22;5546;48.714;8.738;2022-12-18T05:39:01;-5.30;82.00
10986;DHT22;5546;48.714;8.738;2022-12-18T05:41:27;-5.30;82.60
10986;DHT22;5546;48.714;8.738;2022-12-18T05:43:52;-6.10;84.30
10986;DHT22;5546;48.714;8.738;2022-12-18T05:46:18;-6.10;85.20
10986;DHT22;5546;48.714;8.738;2022-12-18T05:48:44;-5.80;85.70
10986;DHT22;5546;48.714;8.738;2022-12-18T05:51:15;-6.10;84.10
10986;DHT22;5546;48.714;8.738;2022-12-18T05:53:42;-6.10;84.80
10986;DHT22;5546;48.714;8.738;2022-12-18T05:56:11;-5.70;84.20
10986;DHT22;5546;48.714;8.738;2022-12-18T05:58:37;-5.80;84.60
10986;DHT22;5546;48.714;8.738;2022-12-18T06:01:12;-5.90;84.90
10986;DHT22;5546;48.714;8.738;2022-12-18T06:03:37;-5.50;83.30
10986;DHT22;5546;48.714;8.738;2022-12-18T06:06:03;-5.30;83.10
10986;DHT22;5546;48.714;8.738;2022-12-18T06:08:29;-5.40;83.70
10986;DHT22;5546;48.714;8.738;2022-12-18T06:10:55;-5.00;82.40
10986;DHT22;5546;48.714;8.738;2022-12-18T06:13:21;-5.10;82.80
10986;DHT22;5546;48.714;8.738;2022-12-18T06:15:46;-5.20;82.80
10986;DHT22;5546;48.714;8.738;2022-12-18T06:18:12;-5.30;83.50
10986;DHT22;5546;48.714;8.738;2022-12-18T06:20:38;-5.40;83.90
10986;DHT22;5546;48.714;8.738;2022-12-18T06:23:05;-5.60;84.50
10986;DHT22;5546;48.714;8.738;2022-12-18T06:25:31;-5.40;85.60
10986;DHT22;5546;48.714;8.738;2022-12-18T06:27:56;-5.40;85.10
10986;DHT22;5546;48.714;8.738;2022-12-18T06:30:22;-5.80;85.80
10986;DHT22;5546;48.714;8.738;2022-12-18T06:32:48;-6.00;86.10
10986;DHT22;5546;48.714;8.738;2022-12-18T06:35:14;-6.00;86.70
10986;DHT22;5546;48.714;8.738;2022-12-18T06:37:39;-5.90;86.40
10986;DHT22;5546;48.714;8.738;2022-12-18T06:40:05;-5.90;86.60
10986;DHT22;5546;48.714;8.738;2022-12-18T06:42:31;-5.90;87.10
10986;DHT22;5546;48.714;8.738;2022-12-18T06:44:57;-6.00;87.00
10986;DHT22;5546;48.714;8.738;2022-12-18T06:47:22;-6.60;87.90
10986;DHT22;5546;48.714;8.738;2022-12-18T06:49:48;-6.50;88.30
10986;DHT22;5546;48.714;8.738;2022-12-18T06:52:16;-6.50;88.90
10986;DHT22;5546;48.714;8.738;2022-12-18T06:54:42;-6.00;88.30
10986;DHT22;5546;48.714;8.738;2022-12-18T06:57:08;-5.90;87.60
10986;DHT22;5546;48.714;8.738;2022-12-18T06:59:33;-6.50;89.40
10986;DHT22;5546;48.714;8.738;2022-12-18T07:01:59;-6.50;90.00
10986;DHT22;5546;48.714;8.738;2022-12-18T07:04:29;-6.40;89.60
10986;DHT22;5546;48.714;8.738;2022-12-18T07:06:54;-6.10;89.30
10986;DHT22;5546;48.714;8.738;2022-12-18T07:09:20;-6.10;89.40
10986;DHT22;5546;48.714;8.738;2022-12-18T07:11:45;-6.00;90.40
10986;DHT22;5546;48.714;8.738;2022-12-18T07:14:11;-6.90;90.70
10986;DHT22;5546;48.714;8.738;2022-12-18T07:16:36;-6.90;91.30
10986;DHT22;5546;48.714;8.738;2022-12-18T07:19:02;-7.00;91.60
10986;DHT22;5546;48.714;8.738;2022-12-18T07:21:28;-6.20;91.00
10986;DHT22;5546;48.714;8.738;2022-12-18T07:23:53;-6.20;91.20
10986;DHT22;5546;48.714;8.738;2022-12-18T07:26:20;-5.90;90.60
10986;DHT22;5546;48.714;8.738;2022-12-18T07:31:19;-5.60;90.20
10986;DHT22;5546;48.714;8.738;2022-12-18T07:33:45;-5.10;89.40
10986;DHT22;5546;48.714;8.738;2022-12-18T07:36:12;-5.00;88.40
10986;DHT22;5546;48.714;8.738;2022-12-18T07:38:38;-6.20;90.40
10986;DHT22;5546;48.714;8.738;2022-12-18T07:41:05;-6.30;90.70
10986;DHT22;5546;48.714;8.738;2022-12-18T07:43:31;-6.30;91.20
10986;DHT22;5546;48.714;8.738;2022-12-18T07:45:57;-6.50;90.40
10986;DHT22;5546;48.714;8.738;2022-12-18T07:48:22;-6.50;90.70
10986;DHT22;5546;48.714;8.738;2022-12-18T07:50:48;-6.40;90.70
10986;DHT22;5546;48.714;8.738;2022-12-18T07:53:13;-6.40;91.10
10986;DHT22;5546;48.714;8.738;2022-12-18T07:55:40;-6.40;91.30
10986;DHT22;5546;48.714;8.738;2022-12-18T07:58:06;-6.20;90.40
10986;DHT22;5546;48.714;8.738;2022-12-18T08:00:32;-6.30;90.20
10986;DHT22;5546;48.714;8.738;2022-12-18T08:02:58;-6.30;89.50
10986;DHT22;5546;48.714;8.738;2022-12-18T08:05:23;-6.40;89.80
10986;DHT22;5546;48.714;8.738;2022-12-18T08:07:49;-6.40;90.20
10986;DHT22;5546;48.714;8.738;2022-12-18T08:10:15;-6.10;90.20
10986;DHT22;5546;48.714;8.738;2022-12-18T08:12:40;-5.70;89.90
10986;DHT22;5546;48.714;8.738;2022-12-18T08:15:06;-5.40;89.30
10986;DHT22;5546;48.714;8.738;2022-12-18T08:17:32;-5.40;89.00
10986;DHT22;5546;48.714;8.738;2022-12-18T08:19:57;-5.40;89.50
10986;DHT22;5546;48.714;8.738;2022-12-18T08:22:23;-5.20;88.90
10986;DHT22;5546;48.714;8.738;2022-12-18T08:24:48;-5.10;89.10
10986;DHT22;5546;48.714;8.738;2022-12-18T08:27:14;-4.80;88.60
10986;DHT22;5546;48.714;8.738;2022-12-18T08:29:40;-4.80;89.10
10986;DHT22;5546;48.714;8.738;2022-12-18T08:32:05;-4.60;88.90
10986;DHT22;5546;48.714;8.738;2022-12-18T08:34:31;-4.80;88.80
10986;DHT22;5546;48.714;8.738;2022-12-18T08:36:56;-4.80;89.40
10986;DHT22;5546;48.714;8.738;2022-12-18T08:39:22;-4.30;88.80
10986;DHT22;5546;48.714;8.738;2022-12-18T08:41:47;-4.60;87.50
10986;DHT22;5546;48.714;8.738;2022-12-18T08:44:33;-4.60;88.10
10986;DHT22;5546;48.714;8.738;2022-12-18T08:47:05;-4.40;87.60
10986;DHT22;5546;48.714;8.738;2022-12-18T08:49:31;-4.40;86.10
10986;DHT22;5546;48.714;8.738;2022-12-18T08:51:57;-4.40;86.70
10986;DHT22;5546;48.714;8.738;2022-12-18T08:54:23;-4.40;86.70
10986;DHT22;5546;48.714;8.738;2022-12-18T08:56:49;-3.70;86.30
10986;DHT22;5546;48.714;8.738;2022-12-18T08:59:18;-3.70;86.80
10986;DHT22;5546;48.714;8.738;2022-12-18T09:01:44;-3.20;84.90
10986;DHT22;5546;48.714;8.738;2022-12-18T09:04:10;-3.10;85.00
10986;DHT22;5546;48.714;8.738;2022-12-18T09:06:36;-3.20;84.50
10986;DHT22;5546;48.714;8.738;2022-12-18T09:09:02;-2.90;84.70
10986;DHT22;5546;48.714;8.738;2022-12-18T09:11:28;-2.10;81.90
10986;DHT22;5546;48.714;8.738;2022-12-18T09:13:55;-2.00;82.60
10986;DHT22;5546;48.714;8.738;2022-12-18T09:16:22;-1.30;80.40
10986;DHT22;5546;48.714;8.738;2022-12-18T09:18:48;-1.40;81.00
10986;DHT22;5546;48.714;8.738;2022-12-18T09:21:19;-0.80;81.00
10986;DHT22;5546;48.714;8.738;2022-12-18T09:23:50;-0.70;79.80
10986;DHT22;5546;48.714;8.738;2022-12-18T09:26:16;-0.60;80.20
10986;DHT22;5546;48.714;8.738;2022-12-18T09:28:42;-0.40;80.50
10986;DHT22;5546;48.714;8.738;2022-12-18T09:31:10;0.00;80.00
10986;DHT22;5546;48.714;8.738;2022-12-18T09:33:36;0.10;80.60
10986;DHT22;5546;48.714;8.738;2022-12-18T09:36:03;0.50;79.10
10986;DHT22;5546;48.714;8.738;2022-12-18T09:38:29;-0.20;82.00
10986;DHT22;5546;48.714;8.738;2022-12-18T09:40:59;-0.10;82.70
10986;DHT22;5546;48.714;8.738;2022-12-18T09:43:50;0.10;81.60
10986;DHT22;5546;48.714;8.738;2022-12-18T09:46:26;0.50;81.70
10986;DHT22;5546;48.714;8.738;2022-12-18T09:48:55;0.70;80.00
10986;DHT22;5546;48.714;8.738;2022-12-18T09:51:37;0.70;80.80
10986;DHT22;5546;48.714;8.738;2022-12-18T09:54:18;0.90;81.10
10986;DHT22;5546;48.714;8.738;2022-12-18T09:56:45;1.10;81.70
10986;DHT22;5546;48.714;8.738;2022-12-18T09:59:37;1.50;81.30
10986;DHT22;5546;48.714;8.738;2022-12-18T10:02:20;1.80;80.60
10986;DHT22;5546;48.714;8.738;2022-12-18T10:07:35;1.50;83.30
10986;DHT22;5546;48.714;8.738;2022-12-18T10:10:23;1.50;83.50
10986;DHT22;5546;48.714;8.738;2022-12-18T10:16:13;0.60;87.40
10986;DHT22;5546;48.714;8.738;2022-12-18T10:18:59;0.00;88.90
10986;DHT22;5546;48.714;8.738;2022-12-18T10:21:37;0.00;90.00
10986;DHT22;5546;48.714;8.738;2022-12-18T10:24:34;0.30;89.20
10986;DHT22;5546;48.714;8.738;2022-12-18T10:27:17;-0.10;89.40
10986;DHT22;5546;48.714;8.738;2022-12-18T10:29:44;0.10;89.70
10986;DHT22;5546;48.714;8.738;2022-12-18T10:32:15;0.40;89.40
10986;DHT22;5546;48.714;8.738;2022-12-18T10:34:41;0.50;90.00
10986;DHT22;5546;48.714;8.738;2022-12-18T10:37:16;1.30;87.80
10986;DHT22;5546;48.714;8.738;2022-12-18T10:39:41;0.90;87.20
10986;DHT22;5546;48.714;8.738;2022-12-18T10:42:20;0.50;88.90
10986;DHT22;5546;48.714;8.738;2022-12-18T10:44:46;0.70;88.60
10986;DHT22;5546;48.714;8.738;2022-12-18T10:47:25;0.60;88.80
10986;DHT22;5546;48.714;8.738;2022-12-18T10:49:53;0.10;90.00
10986;DHT22;5546;48.714;8.738;2022-12-18T10:52:25;0.00;91.00
10986;DHT22;5546;48.714;8.738;2022-12-18T10:55:03;0.30;90.50
10986;DHT22;5546;48.714;8.738;2022-12-18T10:57:32;0.40;90.70
10986;DHT22;5546;48.714;8.738;2022-12-18T11:00:00;1.10;88.50
10986;DHT22;5546;48.714;8.738;2022-12-18T11:02:36;0.40;89.20
10986;DHT22;5546;48.714;8.738;2022-12-18T11:05:10;0.70;90.20
10986;DHT22;5546;48.714;8.738;2022-12-18T11:07:49;0.40;90.10
10986;DHT22;5546;48.714;8.738;2022-12-18T11:10:20;0.00;91.00
10986;DHT22;5546;48.714;8.738;2022-12-18T11:12:46;-0.10;91.10
10986;DHT22;5546;48.714;8.738;2022-12-18T11:15:26;-0.20;91.50
10986;DHT22;5546;48.714;8.738;2022-12-18T11:17:53;-0.10;91.30
10986;DHT22;5546;48.714;8.738;2022-12-18T11:20:33;-0.20;91.50
10986;DHT22;5546;48.714;8.738;2022-12-18T11:23:03;0.20;90.80
10986;DHT22;5546;48.714;8.738;2022-12-18T11:25:30;0.20;91.10
10986;DHT22;5546;48.714;8.738;2022-12-18T11:27:59;0.50;90.80
10986;DHT22;5546;48.714;8.738;2022-12-18T11:30:32;1.00;89.40
10986;DHT22;5546;48.714;8.738;2022-12-18T11:33:03;1.00;90.00
10986;DHT22;5546;48.714;8.738;2022-12-18T11:35:38;0.70;88.90
10986;DHT22;5546;48.714;8.738;2022-12-18T11:38:18;0.90;90.00
10986;DHT22;5546;48.714;8.738;2022-12-18T11:40:49;0.90;90.20
10986;DHT22;5546;48.714;8.738;2022-12-18T11:46:27;1.80;88.40
10986;DHT22;5546;48.714;8.738;2022-12-18T11:49:06;1.90;88.50
10986;DHT22;5546;48.714;8.738;2022-12-18T11:51:41;3.00;84.70
10986;DHT22;5546;48.714;8.738;2022-12-18T11:54:14;3.00;83.30
10986;DHT22;5546;48.714;8.738;2022-12-18T11:56:48;3.20;83.50
10986;DHT22;5546;48.714;8.738;2022-12-18T12:02:19;3.20;84.10
10986;DHT22;5546;48.714;8.738;2022-12-18T12:04:54;3.80;83.50
10986;DHT22;5546;48.714;8.738;2022-12-18T12:10:00;4.60;79.00
10986;DHT22;5546;48.714;8.738;2022-12-18T12:13:02;4.60;79.60
10986;DHT22;5546;48.714;8.738;2022-12-18T12:26:52;5.30;78.50
10986;DHT22;5546;48.714;8.738;2022-12-18T12:29:36;5.50;79.20
10986;DHT22;5546;48.714;8.738;2022-12-18T12:37:44;6.30;75.70
10986;DHT22;5546;48.714;8.738;2022-12-18T12:40:20;6.00;75.70
10986;DHT22;5546;48.714;8.738;2022-12-18T12:42:52;6.00;76.30
10986;DHT22;5546;48.714;8.738;2022-12-18T12:46:03;5.90;77.30
10986;DHT22;5546;48.714;8.738;2022-12-18T12:48:51;5.90;77.70
10986;DHT22;5546;48.714;8.738;2022-12-18T12:51:47;5.90;77.20
10986;DHT22;5546;48.714;8.738;2022-12-18T12:54:20;5.90;77.80
10986;DHT22;5546;48.714;8.738;2022-12-18T12:59:19;6.20;77.50
10986;DHT22;5546;48.714;8.738;2022-12-18T13:02:00;6.20;76.50
10986;DHT22;5546;48.714;8.738;2022-12-18T13:10:13;5.70;77.40
10986;DHT22;5546;48.714;8.738;2022-12-18T13:12:52;5.40;78.90
10986;DHT22;5546;48.714;8.738;2022-12-18T13:18:10;5.40;79.90
10986;DHT22;5546;48.714;8.738;2022-12-18T13:30:59;5.30;80.70
10986;DHT22;5546;48.714;8.738;2022-12-18T13:36:14;4.70;82.50
10986;DHT22;5546;48.714;8.738;2022-12-18T13:38:38;4.50;83.20
10986;DHT22;5546;48.714;8.738;2022-12-18T13:41:23;4.50;83.60
10986;DHT22;5546;48.714;8.738;2022-12-18T13:43:53;4.60;83.50
10986;DHT22;5546;48.714;8.738;2022-12-18T13:46:29;4.70;83.40
10986;DHT22;5546;48.714;8.738;2022-12-18T13:51:44;4.80;82.80
10986;DHT22;5546;48.714;8.738;2022-12-18T13:54:18;4.20;83.70
10986;DHT22;5546;48.714;8.738;2022-12-18T13:56:47;4.10;84.90
10986;DHT22;5546;48.714;8.738;2022-12-18T13:59:17;4.20;85.50
10986;DHT22;5546;48.714;8.738;2022-12-18T14:01:54;4.20;84.80
10986;DHT22;5546;48.714;8.738;2022-12-18T14:04:32;4.00;85.90
10986;DHT22;5546;48.714;8.738;2022-12-18T14:07:03;4.20;85.10
10986;DHT22;5546;48.714;8.738;2022-12-18T14:09:31;4.10;85.30
10986;DHT22;5546;48.714;8.738;2022-12-18T14:12:00;4.10;84.60
10986;DHT22;5546;48.714;8.738;2022-12-18T14:14:46;4.10;84.80
10986;DHT22;5546;48.714;8.738;2022-12-18T14:17:13;4.20;85.30
10986;DHT22;5546;48.714;8.738;2022-12-18T14:19:47;4.20;84.60
10986;DHT22;5546;48.714;8.738;2022-12-18T14:22:17;4.20;85.10
10986;DHT22;5546;48.714;8.738;2022-12-18T14:24:44;4.10;85.40
10986;DHT22;5546;48.714;8.738;2022-12-18T14:27:25;3.90;84.90
10986;DHT22;5546;48.714;8.738;2022-12-18T14:29:51;3.80;85.50
10986;DHT22;5546;48.714;8.738;2022-12-18T14:32:19;3.70;86.40
10986;DHT22;5546;48.714;8.738;2022-12-18T14:34:50;3.60;87.60
10986;DHT22;5546;48.714;8.738;2022-12-18T14:37:20;3.70;87.00
10986;DHT22;5546;48.714;8.738;2022-12-18T14:39:58;3.20;87.40
10986;DHT22;5546;48.714;8.738;2022-12-18T14:42:25;3.20;87.90
10986;DHT22;5546;48.714;8.738;2022-12-18T14:47:57;3.40;88.00
10986;DHT22;5546;48.714;8.738;2022-12-18T14:50:23;3.20;87.10
10986;DHT22;5546;48.714;8.738;2022-12-18T14:52:49;3.20;87.80
10986;DHT22;5546;48.714;8.738;2022-12-18T14:55:17;3.10;87.60
10986;DHT22;5546;48.714;8.738;2022-12-18T14:57:43;3.10;88.30
10986;DHT22;5546;48.714;8.738;2022-12-18T15:00:20;3.10;88.50
10986;DHT22;5546;48.714;8.738;2022-12-18T15:02:50;3.00;88.50
10986;DHT22;5546;48.714;8.738;2022-12-18T15:05:35;2.80;89.10
10986;DHT22;5546;48.714;8.738;2022-12-18T15:10:32;2.00;90.00
10986;DHT22;5546;48.714;8.738;2022-12-18T15:20:39;2.70;89.50
10986;DHT22;5546;48.714;8.738;2022-12-18T15:23:21;2.40;88.40
10986;DHT22;5546;48.714;8.738;2022-12-18T15:26:07;2.20;88.90
10986;DHT22;5546;48.714;8.738;2022-12-18T15:33:59;1.60;91.40
10986;DHT22;5546;48.714;8.738;2022-12-18T15:36:29;1.10;92.10
10986;DHT22;5546;48.714;8.738;2022-12-18T15:38:56;1.30;91.10
10986;DHT22;5546;48.714;8.738;2022-12-18T15:41:23;1.30;91.40
10986;DHT22;5546;48.714;8.738;2022-12-18T15:43:50;1.50;90.40
10986;DHT22;5546;48.714;8.738;2022-12-18T15:46:21;2.00;90.90
10986;DHT22;5546;48.714;8.738;2022-12-18T15:48:52;1.80;90.30
10986;DHT22;5546;48.714;8.738;2022-12-18T15:51:39;1.60;90.40
10986;DHT22;5546;48.714;8.738;2022-12-18T15:54:08;1.60;90.50
10986;DHT22;5546;48.714;8.738;2022-12-18T15:56:34;1.50;90.40
10986;DHT22;5546;48.714;8.738;2022-12-18T15:59:20;1.50;90.60
10986;DHT22;5546;48.714;8.738;2022-12-18T16:01:51;1.50;90.30
10986;DHT22;5546;48.714;8.738;2022-12-18T16:04:19;1.50;90.60
10986;DHT22;5546;48.714;8.738;2022-12-18T16:06:46;1.60;90.70
10986;DHT22;5546;48.714;8.738;2022-12-18T16:09:11;1.20;91.00
10986;DHT22;5546;48.714;8.738;2022-12-18T16:11:39;1.10;91.30
10986;DHT22;5546;48.714;8.738;2022-12-18T16:14:24;1.10;91.40
10986;DHT22;5546;48.714;8.738;2022-12-18T16:16:56;1.10;91.80
10986;DHT22;5546;48.714;8.738;2022-12-18T16:19:22;1.00;91.40
10986;DHT22;5546;48.714;8.738;2022-12-18T16:21:50;1.00;91.70
10986;DHT22;5546;48.714;8.738;2022-12-18T16:24:17;1.30;91.90
10986;DHT22;5546;48.714;8.738;2022-12-18T16:26:43;1.30;91.30
10986;DHT22;5546;48.714;8.738;2022-12-18T16:29:09;1.30;91.50
10986;DHT22;5546;48.714;8.738;2022-12-18T16:31:36;1.70;91.40
10986;DHT22;5546;48.714;8.738;2022-12-18T16:34:22;1.50;91.40
10986;DHT22;5546;48.714;8.738;2022-12-18T16:36:49;1.40;91.10
10986;DHT22;5546;48.714;8.738;2022-12-18T16:39:15;1.30;91.20
10986;DHT22;5546;48.714;8.738;2022-12-18T16:41:40;1.50;91.60
10986;DHT22;5546;48.714;8.738;2022-12-18T16:44:06;2.10;91.10
10986;DHT22;5546;48.714;8.738;2022-12-18T16:46:32;1.80;90.80
10986;DHT22;5546;48.714;8.738;2022-12-18T16:48:59;1.70;91.00
10986;DHT22;5546;48.714;8.738;2022-12-18T16:51:26;1.50;90.90
10986;DHT22;5546;48.714;8.738;2022-12-18T16:53:52;1.50;91.20
10986;DHT22;5546;48.714;8.738;2022-12-18T16:56:18;1.00;91.90
10986;DHT22;5546;48.714;8.738;2022-12-18T16:58:50;1.20;91.90
10986;DHT22;5546;48.714;8.738;2022-12-18T17:01:15;1.20;92.10
10986;DHT22;5546;48.714;8.738;2022-12-18T17:03:41;1.30;91.80
10986;DHT22;5546;48.714;8.738;2022-12-18T17:06:06;1.10;91.90
10986;DHT22;5546;48.714;8.738;2022-12-18T17:08:32;1.10;91.90
10986;DHT22;5546;48.714;8.738;2022-12-18T17:11:05;1.10;92.10
10986;DHT22;5546;48.714;8.738;2022-12-18T17:13:31;1.50;91.70
10986;DHT22;5546;48.714;8.738;2022-12-18T17:16:07;1.40;91.40
10986;DHT22;5546;48.714;8.738;2022-12-18T17:18:33;1.70;91.50
10986;DHT22;5546;48.714;8.738;2022-12-18T17:21:00;2.00;90.60
10986;DHT22;5546;48.714;8.738;2022-12-18T17:23:27;2.10;90.90
10986;DHT22;5546;48.714;8.738;2022-12-18T17:25:57;2.00;90.20
10986;DHT22;5546;48.714;8.738;2022-12-18T17:28:23;2.00;90.40
10986;DHT22;5546;48.714;8.738;2022-12-18T17:30:54;2.10;90.70
10986;DHT22;5546;48.714;8.738;2022-12-18T17:33:21;2.20;90.40
10986;DHT22;5546;48.714;8.738;2022-12-18T17:35:46;1.80;90.70
10986;DHT22;5546;48.714;8.738;2022-12-18T17:38:12;2.00;90.90
10986;DHT22;5546;48.714;8.738;2022-12-18T17:40:38;2.00;90.70
10986;DHT22;5546;48.714;8.738;2022-12-18T17:43:08;1.80;90.70
10986;DHT22;5546;48.714;8.738;2022-12-18T17:45:38;1.80;90.80
10986;DHT22;5546;48.714;8.738;2022-12-18T17:48:05;1.90;91.10
10986;DHT22;5546;48.714;8.738;2022-12-18T17:50:32;2.00;90.80